Time;durP1;ratioP1;P1;durP2;ratioP2;P2;SDS_P1;SDS_P2;PMS_P1;PMS_P2;Temp;Humidity;BMP_temperature;BMP_pressure;BME280_temperature;BME280_humidity;BME280_pressure;Samples;Min_cycle;Max_cycle;Signal;HPM_P1;HPM_P2
2021/10/04 00:02:18;;;;;;;2.58;0.93;;;;;;;;;;5049436;28;20409;-63
2021/10/04 00:04:44;;;;;;;3.37;0.90;;;;;;;;;;5049845;28;20078;-63
2021/10/04 00:07:09;;;;;;;2.72;0.80;;;;;;;;;;5050124;28;20279;-63
2021/10/04 00:09:34;;;;;;;3.13;0.82;;;;;;;;;;5050148;28;20025;-63
2021/10/04 00:11:59;;;;;;;3.03;0.83;;;;;;;;;;5050368;28;20036;-63
2021/10/04 00:14:24;;;;;;;1.83;0.68;;;;;;;;;;5048380;28;20750;-63
2021/10/04 00:16:51;;;;;;;1.95;0.80;;;;;;;;;;5050121;28;20429;-62
2021/10/04 00:19:16;;;;;;;1.17;0.77;;;;;;;;;;5049854;28;20028;-63
2021/10/04 00:21:42;;;;;;;2.25;0.90;;;;;;;;;;5050191;28;20028;-65
2021/10/04 00:24:07;;;;;;;0.80;0.60;;;;;;;;;;5049994;28;20025;-63
2021/10/04 00:26:32;;;;;;;2.97;0.57;;;;;;;;;;5049777;28;20017;-63
2021/10/04 00:28:57;;;;;;;5.15;0.95;;;;;;;;;;5049917;28;20017;-63
2021/10/04 00:31:23;;;;;;;2.15;0.70;;;;;;;;;;5049905;28;20021;-63
2021/10/04 00:33:48;;;;;;;6.38;0.93;;;;;;;;;;5049196;28;20021;-63
2021/10/04 00:36:13;;;;;;;1.77;0.70;;;;;;;;;;5049956;28;20021;-63
2021/10/04 00:38:38;;;;;;;5.43;0.85;;;;;;;;;;5050013;28;20337;-63
2021/10/04 00:41:03;;;;;;;2.00;1.00;;;;;;;;;;5049858;28;20051;-64
2021/10/04 00:43:29;;;;;;;5.10;0.67;;;;;;;;;;5048677;28;20078;-64
2021/10/04 00:45:54;;;;;;;13.13;1.92;;;;;;;;;;5049878;28;20731;-64
2021/10/04 00:48:19;;;;;;;3.65;0.90;;;;;;;;;;5049539;28;20104;-63
2021/10/04 00:50:45;;;;;;;3.95;1.10;;;;;;;;;;5050066;28;20064;-63
2021/10/04 00:53:10;;;;;;;1.77;1.00;;;;;;;;;;5049732;28;20013;-64
2021/10/04 00:55:36;;;;;;;8.93;1.25;;;;;;;;;;5049589;28;20017;-63
2021/10/04 00:58:01;;;;;;;2.30;0.75;;;;;;;;;;5049945;28;20013;-63
2021/10/04 01:00:28;;;;;;;2.30;0.77;;;;;;;;;;5049412;28;20592;-65
2021/10/04 01:02:53;;;;;;;1.73;0.70;;;;;;;;;;5031117;28;20025;-65
2021/10/04 01:05:18;;;;;;;4.47;0.68;;;;;;;;;;5049790;28;20032;-63
2021/10/04 01:07:44;;;;;;;2.70;0.80;;;;;;;;;;5049743;28;20025;-63
2021/10/04 01:10:10;;;;;;;1.50;0.60;;;;;;;;;;5049800;28;20036;-63
2021/10/04 01:12:39;;;;;;;4.78;0.73;;;;;;;;;;5049042;28;20373;-63
2021/10/04 01:15:04;;;;;;;2.92;0.60;;;;;;;;;;5048843;28;20024;-63
2021/10/04 01:17:29;;;;;;;2.13;0.60;;;;;;;;;;5051869;28;20017;-63
2021/10/04 01:19:55;;;;;;;5.10;0.70;;;;;;;;;;5053191;28;20040;-62
2021/10/04 01:22:20;;;;;;;6.13;0.98;;;;;;;;;;5052990;28;20025;-63
2021/10/04 01:24:45;;;;;;;2.00;0.90;;;;;;;;;;5065165;28;20040;-63
2021/10/04 01:27:11;;;;;;;2.15;0.60;;;;;;;;;;5053315;28;20148;-64
2021/10/04 01:29:36;;;;;;;0.98;0.50;;;;;;;;;;5052885;28;20036;-63
2021/10/04 01:32:01;;;;;;;1.23;0.60;;;;;;;;;;5052691;28;20029;-64
2021/10/04 01:34:27;;;;;;;4.28;1.13;;;;;;;;;;5052861;28;20021;-62
2021/10/04 01:36:52;;;;;;;0.60;0.50;;;;;;;;;;5052432;28;20009;-63
2021/10/04 01:39:17;;;;;;;0.90;0.40;;;;;;;;;;5053192;28;20271;-63
2021/10/04 01:41:42;;;;;;;7.18;0.80;;;;;;;;;;5053010;28;20046;-63
2021/10/04 01:44:07;;;;;;;1.13;0.50;;;;;;;;;;5052871;28;20074;-62
2021/10/04 01:46:33;;;;;;;1.38;0.70;;;;;;;;;;5053062;28;20025;-63
2021/10/04 01:48:58;;;;;;;0.73;0.50;;;;;;;;;;5052603;28;20048;-62
2021/10/04 01:51:23;;;;;;;1.27;0.60;;;;;;;;;;5034479;28;20135;-63
2021/10/04 01:53:48;;;;;;;1.30;0.30;;;;;;;;;;5052380;28;20609;-63
2021/10/04 01:56:13;;;;;;;1.85;0.68;;;;;;;;;;5052843;28;20275;-63
2021/10/04 01:58:39;;;;;;;0.63;0.43;;;;;;;;;;5052275;28;20053;-64
2021/10/04 02:01:05;;;;;;;2.95;0.70;;;;;;;;;;5052870;28;20025;-63
2021/10/04 02:03:30;;;;;;;3.35;0.68;;;;;;;;;;5052171;28;20021;-62
2021/10/04 02:05:56;;;;;;;3.33;0.80;;;;;;;;;;5051908;28;20029;-64
2021/10/04 02:08:21;;;;;;;1.40;0.77;;;;;;;;;;5052403;28;20029;-63
2021/10/04 02:10:47;;;;;;;1.42;0.45;;;;;;;;;;5052380;28;20025;-64
2021/10/04 02:13:12;;;;;;;3.45;0.63;;;;;;;;;;5051524;28;20115;-63
2021/10/04 02:15:38;;;;;;;2.70;0.65;;;;;;;;;;5052306;28;20071;-63
2021/10/04 02:18:04;;;;;;;1.05;0.68;;;;;;;;;;5052227;28;20025;-63
2021/10/04 02:20:30;;;;;;;2.28;0.63;;;;;;;;;;5052239;28;20086;-62
2021/10/04 02:22:56;;;;;;;1.20;0.63;;;;;;;;;;5051231;28;20039;-64
2021/10/04 02:25:22;;;;;;;3.40;0.70;;;;;;;;;;5052235;28;20108;-64
2021/10/04 02:27:47;;;;;;;3.47;1.10;;;;;;;;;;5052040;28;20021;-62
2021/10/04 02:30:13;;;;;;;8.23;0.57;;;;;;;;;;5058160;23;20102;-86
2021/10/04 02:32:38;;;;;;;2.95;0.60;;;;;;;;;;5049710;28;20112;-84
2021/10/04 02:35:05;;;;;;;1.55;0.70;;;;;;;;;;5068531;28;20107;-85
2021/10/04 02:37:30;;;;;;;1.10;0.45;;;;;;;;;;5069867;28;20029;-86
2021/10/04 02:39:55;;;;;;;3.65;0.63;;;;;;;;;;5069432;28;20047;-86
2021/10/04 02:42:20;;;;;;;3.70;0.98;;;;;;;;;;5067895;28;20020;-86
2021/10/04 02:44:46;;;;;;;2.40;0.60;;;;;;;;;;5069466;28;20033;-86
2021/10/04 02:47:11;;;;;;;3.33;0.98;;;;;;;;;;5068718;28;20048;-84
2021/10/04 02:49:36;;;;;;;7.60;1.42;;;;;;;;;;5068688;28;20024;-85
2021/10/04 02:52:01;;;;;;;1.05;0.57;;;;;;;;;;5067657;28;20048;-85
2021/10/04 02:54:27;;;;;;;4.80;0.82;;;;;;;;;;5069186;28;20110;-86
2021/10/04 02:56:52;;;;;;;2.72;0.73;;;;;;;;;;5068656;28;20476;-85
2021/10/04 02:59:17;;;;;;;2.75;0.88;;;;;;;;;;5069892;28;20025;-85
2021/10/04 03:01:42;;;;;;;1.70;0.63;;;;;;;;;;5072022;28;20016;-86
2021/10/04 03:04:08;;;;;;;0.88;0.50;;;;;;;;;;5071820;28;20571;-86
2021/10/04 03:06:33;;;;;;;2.28;0.85;;;;;;;;;;5073785;28;20388;-85
2021/10/04 03:08:58;;;;;;;1.52;0.70;;;;;;;;;;5070605;28;20111;-86
2021/10/04 03:11:24;;;;;;;0.70;0.50;;;;;;;;;;5072166;28;20034;-89
2021/10/04 03:13:49;;;;;;;1.35;0.63;;;;;;;;;;5066048;28;20021;-87
2021/10/04 03:16:14;;;;;;;0.97;0.50;;;;;;;;;;5068345;28;20468;-87
2021/10/04 03:18:40;;;;;;;3.58;1.02;;;;;;;;;;5067690;28;20267;-88
2021/10/04 03:21:05;;;;;;;0.63;0.35;;;;;;;;;;5066255;28;20021;-87
2021/10/04 03:23:30;;;;;;;4.82;0.65;;;;;;;;;;5065833;28;20043;-88
2021/10/04 03:25:55;;;;;;;1.05;0.65;;;;;;;;;;5068847;28;20092;-88
2021/10/04 03:28:21;;;;;;;3.50;0.70;;;;;;;;;;5068789;28;20163;-88
2021/10/04 03:30:46;;;;;;;3.95;0.65;;;;;;;;;;5068948;28;20028;-87
2021/10/04 03:33:11;;;;;;;4.63;0.70;;;;;;;;;;5066845;28;20066;-88
2021/10/04 03:35:36;;;;;;;3.65;0.73;;;;;;;;;;5068082;28;20285;-87
2021/10/04 03:38:02;;;;;;;3.38;0.70;;;;;;;;;;5067792;28;20074;-88
2021/10/04 03:40:27;;;;;;;0.95;0.38;;;;;;;;;;5066729;28;20142;-87
2021/10/04 03:42:52;;;;;;;0.85;0.50;;;;;;;;;;5068909;28;20028;-87
2021/10/04 03:45:18;;;;;;;2.70;0.80;;;;;;;;;;5070023;28;20021;-87
2021/10/04 03:47:43;;;;;;;0.65;0.40;;;;;;;;;;5067624;28;20115;-88
2021/10/04 03:50:10;;;;;;;4.32;0.50;;;;;;;;;;5067131;28;20043;-87
2021/10/04 03:52:35;;;;;;;0.80;0.50;;;;;;;;;;5066049;28;20059;-89
2021/10/04 03:55:01;;;;;;;2.38;0.70;;;;;;;;;;5065617;28;20044;-86
2021/10/04 03:57:26;;;;;;;1.88;0.43;;;;;;;;;;5067399;28;20559;-86
2021/10/04 03:59:52;;;;;;;2.47;0.60;;;;;;;;;;5069198;28;20020;-85
2021/10/04 04:02:17;;;;;;;5.65;1.23;;;;;;;;;;5067017;28;20017;-87
2021/10/04 04:04:42;;;;;;;1.15;0.63;;;;;;;;;;5066820;28;20100;-86
2021/10/04 04:07:07;;;;;;;3.35;1.10;;;;;;;;;;5065339;28;20024;-85
2021/10/04 04:09:33;;;;;;;3.00;0.85;;;;;;;;;;5068535;28;20035;-85
2021/10/04 04:11:58;;;;;;;0.80;0.47;;;;;;;;;;5070373;28;20024;-85
2021/10/04 04:14:23;;;;;;;1.67;0.50;;;;;;;;;;5073349;28;20024;-87
2021/10/04 04:16:48;;;;;;;1.98;0.80;;;;;;;;;;5074991;28;20052;-86
2021/10/04 04:19:13;;;;;;;1.88;0.75;;;;;;;;;;5082148;28;20092;-86
2021/10/04 04:21:40;;;;;;;2.13;0.75;;;;;;;;;;5083978;28;20029;-86
2021/10/04 04:24:05;;;;;;;4.68;0.70;;;;;;;;;;5084033;28;20027;-87
2021/10/04 04:26:30;;;;;;;1.17;0.60;;;;;;;;;;5079912;28;20090;-85
2021/10/04 04:28:55;;;;;;;2.90;0.83;;;;;;;;;;5079403;28;20028;-86
2021/10/04 04:31:21;;;;;;;2.13;0.70;;;;;;;;;;5079775;28;20279;-86
2021/10/04 04:33:46;;;;;;;1.63;0.73;;;;;;;;;;5068900;28;20017;-85
2021/10/04 04:36:11;;;;;;;1.20;0.60;;;;;;;;;;5068227;28;20068;-85
2021/10/04 04:38:36;;;;;;;2.63;1.33;;;;;;;;;;5068763;28;20021;-86
2021/10/04 04:41:02;;;;;;;2.47;0.80;;;;;;;;;;5066996;28;20025;-85
2021/10/04 04:43:27;;;;;;;2.75;0.93;;;;;;;;;;5067248;28;20388;-85
2021/10/04 04:45:52;;;;;;;2.63;0.82;;;;;;;;;;5068055;28;20526;-86
2021/10/04 04:48:17;;;;;;;1.77;0.60;;;;;;;;;;5065878;28;20388;-86
2021/10/04 04:50:42;;;;;;;1.77;0.70;;;;;;;;;;5067655;28;20021;-86
2021/10/04 04:53:08;;;;;;;6.00;0.98;;;;;;;;;;5069274;28;20017;-86
2021/10/04 04:55:33;;;;;;;7.28;0.70;;;;;;;;;;5071706;28;20029;-86
2021/10/04 04:57:58;;;;;;;2.58;0.73;;;;;;;;;;5071435;28;20553;-85
2021/10/04 05:00:23;;;;;;;12.10;0.93;;;;;;;;;;5071785;28;20074;-84
2021/10/04 05:02:49;;;;;;;1.92;0.90;;;;;;;;;;5070055;28;20032;-85
2021/10/04 05:05:16;;;;;;;2.92;0.47;;;;;;;;;;5071633;28;20051;-86
2021/10/04 05:07:41;;;;;;;4.85;0.73;;;;;;;;;;5072690;28;20050;-85
2021/10/04 05:10:07;;;;;;;2.88;0.68;;;;;;;;;;5072333;28;20559;-85
2021/10/04 05:12:32;;;;;;;0.90;0.57;;;;;;;;;;5075378;28;20020;-86
2021/10/04 05:14:58;;;;;;;0.25;0.22;;;;;;;;;;5075841;28;20087;-87
2021/10/04 05:17:23;;;;;;;1.10;0.63;;;;;;;;;;5069887;28;20017;-86
2021/10/04 05:19:48;;;;;;;3.88;0.73;;;;;;;;;;5070447;28;20035;-85
2021/10/04 05:22:13;;;;;;;1.52;0.63;;;;;;;;;;5069184;28;20487;-86
2021/10/04 05:24:39;;;;;;;3.28;1.00;;;;;;;;;;5067373;28;20618;-85
2021/10/04 05:27:04;;;;;;;1.80;0.70;;;;;;;;;;5068338;28;20021;-86
2021/10/04 05:29:29;;;;;;;1.48;0.70;;;;;;;;;;5070214;28;20801;-86
2021/10/04 05:31:54;;;;;;;2.50;0.80;;;;;;;;;;5074459;28;20021;-83
2021/10/04 05:34:20;;;;;;;2.33;1.13;;;;;;;;;;5068717;28;20495;-87
2021/10/04 05:36:45;;;;;;;4.65;0.80;;;;;;;;;;5069686;28;20421;-86
2021/10/04 05:39:11;;;;;;;1.15;0.40;;;;;;;;;;5070274;28;20074;-86
2021/10/04 05:41:36;;;;;;;2.40;0.75;;;;;;;;;;5071674;28;20027;-85
2021/10/04 05:44:01;;;;;;;3.40;0.73;;;;;;;;;;5074556;28;20036;-88
2021/10/04 05:46:27;;;;;;;3.75;0.90;;;;;;;;;;5083211;28;20271;-86
2021/10/04 05:48:52;;;;;;;8.93;0.50;;;;;;;;;;5072632;28;20054;-87
2021/10/04 05:51:17;;;;;;;5.68;0.90;;;;;;;;;;5073392;28;20040;-87
2021/10/04 05:53:43;;;;;;;0.80;0.45;;;;;;;;;;5072630;28;20052;-87
2021/10/04 05:56:08;;;;;;;3.30;0.90;;;;;;;;;;5071860;28;20017;-88
2021/10/04 05:58:33;;;;;;;2.28;0.82;;;;;;;;;;5072533;28;20031;-87
2021/10/04 06:00:59;;;;;;;4.28;0.80;;;;;;;;;;5071981;28;20016;-86
2021/10/04 06:03:25;;;;;;;2.50;0.65;;;;;;;;;;5068421;28;20031;-86
2021/10/04 06:05:50;;;;;;;3.65;0.98;;;;;;;;;;5069727;28;20112;-86
2021/10/04 06:08:15;;;;;;;1.55;0.55;;;;;;;;;;5068872;28;20061;-86
2021/10/04 06:10:40;;;;;;;2.00;0.80;;;;;;;;;;5070620;28;20028;-86
2021/10/04 06:13:06;;;;;;;3.20;0.80;;;;;;;;;;5082481;22;20000;-67
2021/10/04 06:15:31;;;;;;;1.77;0.90;;;;;;;;;;5066335;28;20314;-67
2021/10/04 06:17:56;;;;;;;2.05;0.88;;;;;;;;;;5071103;28;20012;-67
2021/10/04 06:20:22;;;;;;;4.73;1.30;;;;;;;;;;5083382;28;20028;-67
2021/10/04 06:22:48;;;;;;;2.63;0.98;;;;;;;;;;5092374;28;20254;-67
2021/10/04 06:25:15;;;;;;;8.60;0.90;;;;;;;;;;5092750;28;20026;-67
2021/10/04 06:27:40;;;;;;;1.42;0.60;;;;;;;;;;5066391;28;20504;-67
2021/10/04 06:30:07;;;;;;;1.27;0.68;;;;;;;;;;5045574;28;20028;-68
2021/10/04 06:32:33;;;;;;;4.75;1.50;;;;;;;;;;5066101;28;20076;-69
2021/10/04 06:34:58;;;;;;;1.67;1.58;;;;;;;;;;5065478;28;20016;-68
2021/10/04 06:37:23;;;;;;;5.40;0.90;;;;;;;;;;5066482;28;20521;-68
2021/10/04 06:39:48;;;;;;;4.82;1.20;;;;;;;;;;5071631;28;20255;-68
2021/10/04 06:42:13;;;;;;;3.70;1.20;;;;;;;;;;5069352;28;20434;-68
2021/10/04 06:44:39;;;;;;;2.33;0.82;;;;;;;;;;5069737;28;20281;-68
2021/10/04 06:47:04;;;;;;;4.20;0.85;;;;;;;;;;5066502;28;20100;-68
2021/10/04 06:49:29;;;;;;;5.05;1.08;;;;;;;;;;5062097;28;20104;-68
2021/10/04 06:51:54;;;;;;;4.75;0.90;;;;;;;;;;5067188;28;20024;-68
2021/10/04 06:54:20;;;;;;;8.20;1.23;;;;;;;;;;5067290;28;20384;-68
2021/10/04 06:56:45;;;;;;;2.17;1.25;;;;;;;;;;5044032;28;20033;-68
2021/10/04 06:59:10;;;;;;;5.63;1.30;;;;;;;;;;5069394;28;20241;-68
2021/10/04 07:01:35;;;;;;;3.10;0.83;;;;;;;;;;5059910;28;20294;-68
2021/10/04 07:04:02;;;;;;;1.60;0.75;;;;;;;;;;5067254;28;20739;-68
2021/10/04 07:06:27;;;;;;;4.60;1.20;;;;;;;;;;5058908;28;20028;-68
2021/10/04 07:08:52;;;;;;;5.28;1.25;;;;;;;;;;5061391;28;20540;-68
2021/10/04 07:11:17;;;;;;;4.57;1.07;;;;;;;;;;5058504;28;20068;-68
2021/10/04 07:13:43;;;;;;;2.20;1.13;;;;;;;;;;5070074;28;20604;-68
2021/10/04 07:16:12;;;;;;;1.53;0.90;;;;;;;;;;5050967;28;20104;-68
2021/10/04 07:18:37;;;;;;;1.42;0.80;;;;;;;;;;5057282;28;20277;-68
2021/10/04 07:21:02;;;;;;;5.82;0.95;;;;;;;;;;5062817;28;20025;-68
2021/10/04 07:23:27;;;;;;;1.93;0.97;;;;;;;;;;5068672;28;20130;-68
2021/10/04 07:25:52;;;;;;;2.53;0.70;;;;;;;;;;5069702;28;20298;-68
2021/10/04 07:28:17;;;;;;;3.22;0.85;;;;;;;;;;5061577;28;20325;-68
2021/10/04 07:30:43;;;;;;;2.40;0.88;;;;;;;;;;5060005;28;20021;-68
2021/10/04 07:33:08;;;;;;;4.93;1.40;;;;;;;;;;5050083;28;20343;-69
2021/10/04 07:35:33;;;;;;;4.22;1.20;;;;;;;;;;5050841;28;20032;-69
2021/10/04 07:37:59;;;;;;;3.25;1.45;;;;;;;;;;5051046;28;20039;-68
2021/10/04 07:40:24;;;;;;;3.60;0.93;;;;;;;;;;5051432;28;20033;-68
2021/10/04 07:42:50;;;;;;;2.03;0.80;;;;;;;;;;5066053;28;20105;-68
2021/10/04 07:45:15;;;;;;;2.03;0.75;;;;;;;;;;5058581;28;20112;-68
2021/10/04 07:47:40;;;;;;;2.03;0.85;;;;;;;;;;5050909;28;20481;-68
2021/10/04 07:50:06;;;;;;;7.03;1.38;;;;;;;;;;5067039;28;20021;-68
2021/10/04 07:52:31;;;;;;;3.60;1.08;;;;;;;;;;5050970;28;20100;-68
2021/10/04 07:54:58;;;;;;;3.65;1.23;;;;;;;;;;5069581;28;20125;-68
2021/10/04 07:57:23;;;;;;;1.77;0.98;;;;;;;;;;5059572;28;20017;-68
2021/10/04 07:59:49;;;;;;;5.95;0.95;;;;;;;;;;5064715;28;20047;-68
2021/10/04 08:02:14;;;;;;;1.63;0.90;;;;;;;;;;5062683;28;20040;-68
2021/10/04 08:04:39;;;;;;;2.77;1.17;;;;;;;;;;5065943;28;20279;-68
2021/10/04 08:07:05;;;;;;;2.33;1.08;;;;;;;;;;5064928;28;20401;-68
2021/10/04 08:09:30;;;;;;;4.07;1.25;;;;;;;;;;5061971;28;20024;-68
2021/10/04 08:11:56;;;;;;;3.13;0.88;;;;;;;;;;5059849;28;20054;-68
2021/10/04 08:14:21;;;;;;;3.60;1.20;;;;;;;;;;5060581;28;20024;-68
2021/10/04 08:16:46;;;;;;;5.57;1.13;;;;;;;;;;5060314;28;20020;-68
2021/10/04 08:19:12;;;;;;;3.90;0.73;;;;;;;;;;5057319;28;20028;-68
2021/10/04 08:21:37;;;;;;;4.70;1.20;;;;;;;;;;5060748;28;20020;-69
2021/10/04 08:24:02;;;;;;;5.70;1.20;;;;;;;;;;5060527;28;20023;-68
2021/10/04 08:26:28;;;;;;;4.38;0.77;;;;;;;;;;5062760;28;20492;-68
2021/10/04 08:28:53;;;;;;;5.05;0.90;;;;;;;;;;5057563;28;20322;-68
2021/10/04 08:31:18;;;;;;;2.50;1.00;;;;;;;;;;5077522;22;20051;-64
2021/10/04 08:33:43;;;;;;;7.32;0.98;;;;;;;;;;5061650;28;20032;-65
2021/10/04 08:36:09;;;;;;;3.20;0.98;;;;;;;;;;5059665;28;20337;-64
2021/10/04 08:38:34;;;;;;;0.55;0.43;;;;;;;;;;5057842;28;20012;-65
2021/10/04 08:40:59;;;;;;;2.33;0.60;;;;;;;;;;5046583;28;20047;-64
2021/10/04 08:43:25;;;;;;;1.00;0.60;;;;;;;;;;5046661;28;20538;-65
2021/10/04 08:45:50;;;;;;;2.80;1.02;;;;;;;;;;5042671;28;20116;-65
2021/10/04 08:48:15;;;;;;;1.75;0.82;;;;;;;;;;5041742;28;20152;-64
2021/10/04 08:50:40;;;;;;;0.95;0.65;;;;;;;;;;5040539;28;20389;-65
2021/10/04 08:53:06;;;;;;;5.93;1.13;;;;;;;;;;5043245;28;20338;-64
2021/10/04 08:55:31;;;;;;;13.70;1.58;;;;;;;;;;5037521;28;20463;-65
2021/10/04 08:57:57;;;;;;;1.83;0.70;;;;;;;;;;5041956;28;20017;-65
2021/10/04 09:00:22;;;;;;;2.47;1.02;;;;;;;;;;5041561;28;20029;-63
2021/10/04 09:02:48;;;;;;;2.95;1.00;;;;;;;;;;5042786;28;20057;-65
2021/10/04 09:05:22;;;;;;;1.88;0.57;;;;;;;;;;5038626;28;20060;-64
2021/10/04 09:07:51;;;;;;;2.25;0.57;;;;;;;;;;5042095;28;20620;-65
2021/10/04 09:10:17;;;;;;;3.53;1.35;;;;;;;;;;5045146;28;20489;-66
2021/10/04 09:12:44;;;;;;;1.02;0.82;;;;;;;;;;5043985;28;20048;-65
2021/10/04 09:15:22;;;;;;;3.20;0.85;;;;;;;;;;5035135;28;20022;-64
2021/10/04 09:17:47;;;;;;;2.85;0.77;;;;;;;;;;5045740;28;20489;-66
2021/10/04 09:20:12;;;;;;;4.23;0.80;;;;;;;;;;5039764;28;20108;-66
2021/10/04 09:22:38;;;;;;;1.83;0.75;;;;;;;;;;5036585;28;20268;-66
2021/10/04 09:25:05;;;;;;;7.35;1.63;;;;;;;;;;5043386;28;20053;-66
2021/10/04 09:27:34;;;;;;;5.72;1.23;;;;;;;;;;5044292;28;20020;-64
2021/10/04 09:30:00;;;;;;;3.63;1.25;;;;;;;;;;5042894;28;20029;-66
2021/10/04 09:32:27;;;;;;;1.52;0.52;;;;;;;;;;5042134;28;20033;-66
2021/10/04 09:35:13;;;;;;;1.23;0.82;;;;;;;;;;5040925;28;20021;-65
2021/10/04 09:37:39;;;;;;;6.15;1.20;;;;;;;;;;5040614;28;20117;-66
2021/10/04 09:40:04;;;;;;;7.13;1.25;;;;;;;;;;5045057;28;20096;-65
2021/10/04 09:42:37;;;;;;;7.80;0.88;;;;;;;;;;5041739;28;20091;-65
2021/10/04 09:45:03;;;;;;;4.00;0.98;;;;;;;;;;5040507;28;20029;-65
2021/10/04 09:47:32;;;;;;;2.70;0.82;;;;;;;;;;5044317;28;20484;-64
2021/10/04 09:50:10;;;;;;;6.40;1.02;;;;;;;;;;5046134;28;20075;-66
2021/10/04 09:52:46;;;;;;;3.28;0.90;;;;;;;;;;5046550;28;20418;-66
2021/10/04 09:55:12;;;;;;;2.20;0.68;;;;;;;;;;5046086;28;20524;-66
2021/10/04 09:57:37;;;;;;;0.43;0.43;;;;;;;;;;5047637;28;20029;-64
2021/10/04 10:00:03;;;;;;;3.37;0.63;;;;;;;;;;5052265;28;20469;-63
2021/10/04 10:02:30;;;;;;;4.22;0.82;;;;;;;;;;5045244;28;20279;-66
2021/10/04 10:04:55;;;;;;;3.28;1.10;;;;;;;;;;5046829;28;20029;-66
2021/10/04 10:07:20;;;;;;;3.50;0.95;;;;;;;;;;5048131;28;20021;-66
2021/10/04 10:09:45;;;;;;;2.60;0.80;;;;;;;;;;5045225;28;20032;-65
2021/10/04 10:12:11;;;;;;;4.80;1.20;;;;;;;;;;5042955;28;20682;-65
2021/10/04 10:14:40;;;;;;;1.97;0.83;;;;;;;;;;5043878;28;20279;-66
2021/10/04 10:17:07;;;;;;;1.40;0.68;;;;;;;;;;5046661;28;20294;-64
2021/10/04 10:19:36;;;;;;;3.40;1.00;;;;;;;;;;5042821;28;20021;-64
2021/10/04 10:22:16;;;;;;;1.52;0.85;;;;;;;;;;5043174;28;20028;-66
2021/10/04 10:24:41;;;;;;;1.48;0.63;;;;;;;;;;5046044;28;20021;-67
2021/10/04 10:27:07;;;;;;;18.80;0.98;;;;;;;;;;5050087;28;20127;-65
2021/10/04 10:29:33;;;;;;;2.13;0.40;;;;;;;;;;5042380;28;20013;-65
2021/10/04 10:31:58;;;;;;;6.85;1.23;;;;;;;;;;5046503;28;20024;-64
2021/10/04 10:34:30;;;;;;;1.35;0.52;;;;;;;;;;5040405;28;20010;-65
2021/10/04 10:37:08;;;;;;;3.13;0.90;;;;;;;;;;5046490;28;20393;-65
2021/10/04 10:39:41;;;;;;;4.82;1.30;;;;;;;;;;5041991;28;20013;-65
2021/10/04 10:42:15;;;;;;;2.45;0.75;;;;;;;;;;5045244;28;20441;-65
2021/10/04 10:44:56;;;;;;;2.35;0.50;;;;;;;;;;5044482;28;20036;-66
2021/10/04 10:47:21;;;;;;;;;;;;;;;;;;5043898;28;20050;-67
2021/10/04 10:50:05;;;;;;;10.55;1.20;;;;;;;;;;5042589;28;19913;-66
2021/10/04 10:52:32;;;;;;;8.32;1.25;;;;;;;;;;5044598;28;20446;-66
2021/10/04 10:54:58;;;;;;;2.08;0.77;;;;;;;;;;5039702;28;20029;-64
2021/10/04 10:57:43;;;;;;;2.47;0.50;;;;;;;;;;5047467;28;20466;-66
2021/10/04 11:00:22;;;;;;;10.10;0.90;;;;;;;;;;5043420;28;20485;-66
2021/10/04 11:02:55;;;;;;;2.72;0.40;;;;;;;;;;5041686;28;20120;-67
2021/10/04 11:08:01;;;;;;;4.00;0.75;;;;;;;;;;5044438;28;20029;-66
2021/10/04 11:10:26;;;;;;;2.47;0.47;;;;;;;;;;5050456;28;20025;-64
2021/10/04 11:13:09;;;;;;;1.08;0.50;;;;;;;;;;5044941;28;20338;-64
2021/10/04 11:15:36;;;;;;;2.20;0.95;;;;;;;;;;5043645;28;20560;-66
2021/10/04 11:18:01;;;;;;;2.95;0.90;;;;;;;;;;5043113;28;20043;-65
2021/10/04 11:20:26;;;;;;;3.60;0.75;;;;;;;;;;5043851;28;20025;-64
2021/10/04 11:23:12;;;;;;;1.48;0.70;;;;;;;;;;5036311;28;20068;-65
2021/10/04 11:25:44;;;;;;;2.67;0.80;;;;;;;;;;5040869;28;20044;-65
2021/10/04 11:28:10;;;;;;;5.65;0.70;;;;;;;;;;5037226;28;20025;-65
2021/10/04 11:30:51;;;;;;;2.38;0.80;;;;;;;;;;5039401;28;20024;-65
2021/10/04 11:33:16;;;;;;;12.63;0.60;;;;;;;;;;5042497;28;20035;-64
2021/10/04 11:35:53;;;;;;;4.50;1.05;;;;;;;;;;5042089;28;20021;-64
2021/10/04 11:38:18;;;;;;;1.05;0.52;;;;;;;;;;5043768;28;20071;-66
2021/10/04 11:40:45;;;;;;;3.25;0.70;;;;;;;;;;5037542;28;20580;-65
2021/10/04 11:43:10;;;;;;;7.90;0.85;;;;;;;;;;5042272;28;20025;-64
2021/10/04 11:45:35;;;;;;;7.27;0.90;;;;;;;;;;5041738;28;20031;-65
2021/10/04 11:48:00;;;;;;;8.13;3.23;;;;;;;;;;5039971;28;20275;-65
2021/10/04 11:50:27;;;;;;;1.75;0.50;;;;;;;;;;5044759;28;20294;-65
2021/10/04 11:52:53;;;;;;;2.63;0.60;;;;;;;;;;5036825;28;20047;-65
2021/10/04 11:55:20;;;;;;;3.58;0.88;;;;;;;;;;5050209;28;20017;-65
2021/10/04 11:57:45;;;;;;;2.13;0.47;;;;;;;;;;5034521;28;20017;-64
2021/10/04 12:00:12;;;;;;;6.97;0.70;;;;;;;;;;5039872;28;20539;-65
2021/10/04 12:02:42;;;;;;;3.10;0.40;;;;;;;;;;5042511;28;20028;-64
2021/10/04 12:05:07;;;;;;;3.97;0.55;;;;;;;;;;5044547;28;20029;-64
2021/10/04 12:07:33;;;;;;;4.93;0.70;;;;;;;;;;5042217;28;20025;-66
2021/10/04 12:09:58;;;;;;;8.10;1.13;;;;;;;;;;5045618;28;20036;-64
2021/10/04 12:12:31;;;;;;;1.85;0.63;;;;;;;;;;5044671;28;20282;-65
2021/10/04 12:14:56;;;;;;;1.08;0.47;;;;;;;;;;5033090;28;20028;-64
2021/10/04 12:17:21;;;;;;;4.60;1.20;;;;;;;;;;5044694;28;20485;-64
2021/10/04 12:19:47;;;;;;;1.33;0.60;;;;;;;;;;5027183;28;20013;-66
2021/10/04 12:22:27;;;;;;;1.93;0.73;;;;;;;;;;5039923;28;20028;-66
2021/10/04 12:24:52;;;;;;;3.97;1.15;;;;;;;;;;5045304;28;20279;-65
2021/10/04 12:27:18;;;;;;;2.70;0.77;;;;;;;;;;5043438;28;20052;-67
2021/10/04 12:29:44;;;;;;;3.08;0.80;;;;;;;;;;5043971;28;20298;-65
2021/10/04 12:32:17;;;;;;;4.57;0.67;;;;;;;;;;5045033;28;20049;-66
2021/10/04 12:34:55;;;;;;;2.75;0.75;;;;;;;;;;5043690;28;20624;-65
2021/10/04 12:37:24;;;;;;;0.88;0.45;;;;;;;;;;5040542;28;20089;-65
2021/10/04 12:39:49;;;;;;;1.73;0.43;;;;;;;;;;5039638;28;20072;-64
2021/10/04 12:42:14;;;;;;;1.48;0.70;;;;;;;;;;5040918;28;20033;-65
2021/10/04 12:44:39;;;;;;;1.90;0.50;;;;;;;;;;5042883;28;20032;-65
2021/10/04 12:47:06;;;;;;;1.55;0.45;;;;;;;;;;5043654;28;20276;-66
2021/10/04 12:49:32;;;;;;;6.68;1.95;;;;;;;;;;5042465;28;20482;-64
2021/10/04 12:52:01;;;;;;;6.80;0.90;;;;;;;;;;5041154;28;20068;-65
2021/10/04 12:54:27;;;;;;;2.65;0.60;;;;;;;;;;5039125;28;20025;-66
2021/10/04 12:56:52;;;;;;;1.45;0.50;;;;;;;;;;5041364;28;20013;-65
2021/10/04 12:59:24;;;;;;;2.00;1.10;;;;;;;;;;5041314;28;20039;-64
2021/10/04 13:01:54;;;;;;;0.95;0.52;;;;;;;;;;5042638;28;20028;-66
2021/10/04 13:04:29;;;;;;;3.17;0.57;;;;;;;;;;5043008;28;20427;-65
2021/10/04 13:06:54;;;;;;;6.28;1.77;;;;;;;;;;5040679;28;20029;-65
2021/10/04 13:09:19;;;;;;;3.35;0.52;;;;;;;;;;5040829;28;20021;-64
2021/10/04 13:11:46;;;;;;;11.30;0.90;;;;;;;;;;5036874;28;20032;-66
2021/10/04 13:14:11;;;;;;;1.13;0.43;;;;;;;;;;5046268;28;20025;-65
2021/10/04 13:16:37;;;;;;;2.10;0.65;;;;;;;;;;5046763;28;20024;-66
2021/10/04 13:19:02;;;;;;;4.70;0.40;;;;;;;;;;5044794;28;20036;-64
2021/10/04 13:21:27;;;;;;;4.87;0.50;;;;;;;;;;5031577;28;20271;-66
2021/10/04 13:23:52;;;;;;;5.18;0.38;;;;;;;;;;5043869;28;20660;-64
2021/10/04 13:26:19;;;;;;;1.80;0.60;;;;;;;;;;5042852;28;20030;-65
2021/10/04 13:28:44;;;;;;;3.78;0.32;;;;;;;;;;5046828;28;20048;-65
2021/10/04 13:31:11;;;;;;;4.97;1.30;;;;;;;;;;5045644;28;20025;-67
2021/10/04 13:33:37;;;;;;;1.73;0.60;;;;;;;;;;5047142;28;20525;-65
2021/10/04 13:36:03;;;;;;;0.65;0.30;;;;;;;;;;5042828;28;20025;-64
2021/10/04 13:38:30;;;;;;;3.10;0.70;;;;;;;;;;5045751;28;20013;-64
2021/10/04 13:40:55;;;;;;;1.00;0.50;;;;;;;;;;5041168;28;20017;-64
2021/10/04 13:43:21;;;;;;;1.95;0.63;;;;;;;;;;5046958;28;20029;-65
2021/10/04 13:45:46;;;;;;;1.90;0.40;;;;;;;;;;5044055;28;20064;-65
2021/10/04 13:48:11;;;;;;;5.57;0.70;;;;;;;;;;5047683;28;20021;-67
2021/10/04 13:50:36;;;;;;;0.30;0.20;;;;;;;;;;5046391;28;20298;-66
2021/10/04 13:53:01;;;;;;;5.03;0.50;;;;;;;;;;5044771;28;20043;-65
2021/10/04 13:55:27;;;;;;;9.40;0.90;;;;;;;;;;5045219;28;20531;-67
2021/10/04 13:57:52;;;;;;;2.63;0.60;;;;;;;;;;5046016;28;20290;-65
2021/10/04 14:00:17;;;;;;;5.55;0.77;;;;;;;;;;5047106;28;20260;-65
2021/10/04 14:02:42;;;;;;;5.22;1.25;;;;;;;;;;5044607;28;20022;-65
2021/10/04 14:05:08;;;;;;;2.25;0.65;;;;;;;;;;5050978;28;20021;-64
2021/10/04 14:07:34;;;;;;;7.32;0.63;;;;;;;;;;5044838;28;20024;-66
2021/10/04 14:09:59;;;;;;;4.40;0.93;;;;;;;;;;5047524;28;20480;-64
2021/10/04 14:12:26;;;;;;;1.80;0.60;;;;;;;;;;5042417;28;20070;-66
2021/10/04 14:14:51;;;;;;;1.05;0.65;;;;;;;;;;5049785;28;20025;-65
2021/10/04 14:17:16;;;;;;;3.70;0.88;;;;;;;;;;5042160;28;20034;-64
2021/10/04 14:19:42;;;;;;;1.20;0.55;;;;;;;;;;5045878;28;20029;-64
2021/10/04 14:22:07;;;;;;;3.73;0.53;;;;;;;;;;5044818;28;20028;-65
2021/10/04 14:24:33;;;;;;;4.30;0.65;;;;;;;;;;5045842;28;20352;-65
2021/10/04 14:26:58;;;;;;;6.00;0.47;;;;;;;;;;5046752;28;20048;-65
2021/10/04 14:29:23;;;;;;;3.50;1.03;;;;;;;;;;5047625;28;20025;-65
2021/10/04 14:31:48;;;;;;;4.10;0.70;;;;;;;;;;5074168;22;20682;-66
2021/10/04 14:34:14;;;;;;;6.15;0.77;;;;;;;;;;5069236;28;20078;-67
2021/10/04 14:36:39;;;;;;;3.22;0.60;;;;;;;;;;5069395;28;20058;-67
2021/10/04 14:39:04;;;;;;;2.63;0.68;;;;;;;;;;5070038;28;20096;-68
2021/10/04 14:41:29;;;;;;;1.25;0.68;;;;;;;;;;5064674;28;20112;-68